Main page
METAR-TAF:

METAR-TAF

Airports :

RAF Woodvale

Woodvale, England

latitude: 53-34-54N, longitude: 003-03-20W, elevation: 11 m

Current weather observation

The report was made 9 hours and 9 minutes ago, at 15:50 UTC
Wind 22 kt from the West/Southwest
Temperature 9°C
Humidity 71%
Pressure 1005 hPa
Visibility 10 km or more
Few clouds at a height of 2500 ft, Cumulonimbus.

METAR: EGOW 171550Z 25022KT 9999 FEW025CB 09/04 Q1005 RMK BLU

Time: 00:59 (00:59 UTC)

Forecast

The report was made 11 hours and 3 minutes ago, at 13:56 UTC
Forecast valid from 17 at 15 UTC to 17 at 18 UTC
Wind 22 kt from the West/Southwest with gusts up to 32 kt
Visibility 10 km or more
Scattered clouds at a height of 3000 ft
Probability 40% :
Temporary
from 17 at 15 UTC to 17 at 18 UTC
Visibility: 7000 m
Broken clouds at a height of 2000 ft
rain showers

TAF: EGOW 171356Z 1715/1718 25022G32KT 9999 SCT030 PROB40 TEMPO 1715/1718 7000 SHRA BKN020

Weather observations and forecasts of more than 4000 airports (METAR and TAF reports).

The available stations are represented by yellow and red dots on the map.

Hover mouse over dot to see the name of the station.

Then click to see weather observations and forecasts.

To change the map : click on the green buttons with a black cross to zoom in, on the green button with a dash to zoom out, or on the green arrows for adjacent maps.


METAR-TAF: